createdAt,value
2017-07-26T00:00:51.021Z,4.18
2017-07-26T00:03:18.520Z,4.22
2017-07-26T00:05:46.612Z,4.90
2017-07-26T00:08:14.134Z,4.62
2017-07-26T00:10:41.694Z,5.45
2017-07-26T00:13:09.200Z,4.85
2017-07-26T00:15:36.721Z,4.93
2017-07-26T00:18:04.275Z,4.03
2017-07-26T00:20:31.793Z,3.70
2017-07-26T00:22:59.465Z,3.67
2017-07-26T00:25:26.972Z,2.97
2017-07-26T00:27:54.549Z,3.35
2017-07-26T00:30:22.074Z,3.20
2017-07-26T00:32:49.861Z,3.10
2017-07-26T00:35:17.361Z,2.85
2017-07-26T00:37:44.865Z,3.12
2017-07-26T00:40:12.390Z,2.78
2017-07-26T00:42:39.889Z,3.47
2017-07-26T00:45:07.642Z,2.90
2017-07-26T00:47:35.155Z,3.17
2017-07-26T00:50:02.678Z,3.25
2017-07-26T00:52:30.189Z,2.80
2017-07-26T00:54:57.714Z,2.67
2017-07-26T00:57:26.017Z,2.45
2017-07-26T00:59:53.539Z,2.65
2017-07-26T01:02:21.198Z,2.47
2017-07-26T01:04:48.701Z,2.20
2017-07-26T01:07:16.261Z,2.60
2017-07-26T01:09:43.994Z,2.58
2017-07-26T01:12:11.617Z,2.47
2017-07-26T01:14:39.112Z,3.37
2017-07-26T01:17:06.632Z,2.60
2017-07-26T01:19:34.517Z,2.17
2017-07-26T01:22:02.040Z,2.60
2017-07-26T01:24:29.764Z,1.98
2017-07-26T01:26:57.260Z,2.10
2017-07-26T01:29:24.929Z,2.00
2017-07-26T01:31:52.487Z,2.90
2017-07-26T01:34:20.177Z,2.78
2017-07-26T01:36:47.677Z,2.37
2017-07-26T01:39:15.321Z,2.12
2017-07-26T01:41:42.821Z,2.00
2017-07-26T01:44:10.360Z,2.28
2017-07-26T01:46:37.877Z,1.83
2017-07-26T01:49:05.379Z,2.10
2017-07-26T01:51:32.897Z,2.05
2017-07-26T01:54:00.414Z,2.05
2017-07-26T01:56:27.933Z,1.80
2017-07-26T01:58:55.430Z,2.10
2017-07-26T02:01:23.037Z,1.80
2017-07-26T02:03:50.659Z,2.30
2017-07-26T02:06:18.184Z,2.33
2017-07-26T02:08:45.762Z,2.03
2017-07-26T02:11:13.265Z,1.85
2017-07-26T02:13:40.785Z,1.85
2017-07-26T02:16:08.282Z,2.40
2017-07-26T02:18:35.917Z,2.20
2017-07-26T02:21:03.420Z,2.42
2017-07-26T02:23:31.032Z,2.67
2017-07-26T02:25:58.533Z,2.58
2017-07-26T02:28:26.057Z,2.90
2017-07-26T02:30:53.565Z,2.95
2017-07-26T02:33:21.090Z,3.55
2017-07-26T02:35:48.597Z,3.67
2017-07-26T02:38:16.102Z,2.97
2017-07-26T02:40:43.625Z,2.80
2017-07-26T02:43:11.133Z,2.42
2017-07-26T02:45:38.657Z,2.47
2017-07-26T02:48:06.153Z,1.90
2017-07-26T02:50:33.669Z,1.80
2017-07-26T02:53:01.209Z,1.75
2017-07-26T02:55:28.733Z,1.95
2017-07-26T02:57:56.237Z,1.67
2017-07-26T03:00:23.754Z,1.65
2017-07-26T03:02:51.553Z,1.75
2017-07-26T03:05:19.078Z,1.90
2017-07-26T03:07:46.578Z,1.90
2017-07-26T03:10:14.078Z,1.48
2017-07-26T03:12:41.760Z,1.42
2017-07-26T03:15:09.261Z,1.67
2017-07-26T03:17:37.006Z,1.55
2017-07-26T03:20:04.505Z,1.45
2017-07-26T03:22:32.025Z,1.20
2017-07-26T03:24:59.520Z,1.12
2017-07-26T03:27:27.037Z,1.60
2017-07-26T03:29:54.537Z,1.60
2017-07-26T03:32:22.063Z,1.77
2017-07-26T03:34:49.561Z,1.60
2017-07-26T03:37:17.076Z,1.52
2017-07-26T03:39:44.568Z,1.40
2017-07-26T03:42:12.068Z,1.35
2017-07-26T03:44:39.590Z,1.60
2017-07-26T03:47:07.212Z,1.75
2017-07-26T03:49:34.734Z,1.50
2017-07-26T03:52:02.234Z,1.42
2017-07-26T03:54:29.755Z,1.52
2017-07-26T03:56:57.253Z,1.80
2017-07-26T03:59:24.773Z,2.05
2017-07-26T04:01:52.270Z,1.50
2017-07-26T04:04:19.793Z,1.70
2017-07-26T04:06:47.289Z,1.52
2017-07-26T04:09:14.808Z,1.75
2017-07-26T04:11:42.308Z,1.50
2017-07-26T04:14:09.829Z,1.70
2017-07-26T04:16:37.846Z,1.20
2017-07-26T04:19:05.370Z,1.20
2017-07-26T04:21:32.874Z,1.27
2017-07-26T04:24:00.371Z,1.25
2017-07-26T04:26:27.888Z,1.60
2017-07-26T04:28:55.389Z,1.12
2017-07-26T04:31:22.929Z,1.42
2017-07-26T04:33:50.429Z,1.37
2017-07-26T04:36:17.965Z,1.30
2017-07-26T04:38:45.470Z,1.10
2017-07-26T04:41:12.993Z,1.30
2017-07-26T04:43:40.489Z,1.35
2017-07-26T04:46:08.015Z,1.23
2017-07-26T04:48:35.520Z,1.15
2017-07-26T04:51:03.040Z,1.08
2017-07-26T04:53:30.733Z,1.52
2017-07-26T04:55:58.245Z,1.27
2017-07-26T04:58:25.771Z,2.20
2017-07-26T05:00:53.269Z,1.10
2017-07-26T05:03:20.784Z,1.42
2017-07-26T05:05:48.295Z,1.00
2017-07-26T05:08:15.829Z,1.12
2017-07-26T05:10:43.333Z,0.80
2017-07-26T05:13:10.852Z,0.82
2017-07-26T05:15:38.344Z,0.82
2017-07-26T05:18:05.857Z,0.80
2017-07-26T05:20:33.662Z,0.70
2017-07-26T05:23:01.201Z,0.75
2017-07-26T05:25:34.312Z,0.70
2017-07-26T05:28:02.293Z,0.70
2017-07-26T05:30:30.027Z,0.60
2017-07-26T05:32:57.524Z,0.50
2017-07-26T05:35:25.044Z,0.50
2017-07-26T05:37:52.540Z,0.50
2017-07-26T05:40:20.057Z,0.80
2017-07-26T05:42:47.567Z,0.60
2017-07-26T05:45:15.093Z,0.50
2017-07-26T05:47:42.593Z,0.80
2017-07-26T05:50:10.117Z,0.70
2017-07-26T05:52:37.724Z,0.60
2017-07-26T05:55:05.242Z,0.73
2017-07-26T05:57:32.737Z,0.65
2017-07-26T06:00:00.272Z,0.60
2017-07-26T06:02:27.773Z,0.52
2017-07-26T06:04:55.290Z,0.57
2017-07-26T06:13:41.301Z,0.60
2017-07-26T07:50:54.554Z,0.50
2017-07-26T07:53:22.064Z,0.52
2017-07-26T07:55:49.561Z,0.60
2017-07-26T07:58:17.103Z,0.52
2017-07-26T08:00:44.602Z,0.50
2017-07-26T08:03:12.124Z,0.55
2017-07-26T08:05:39.649Z,0.65
2017-07-26T08:08:07.170Z,0.50
2017-07-26T08:10:34.687Z,0.62
2017-07-26T08:13:02.185Z,0.60
2017-07-26T08:15:29.704Z,0.50
2017-07-26T08:17:57.205Z,0.70
2017-07-26T08:20:24.726Z,0.80
2017-07-26T08:22:52.221Z,0.70
2017-07-26T08:25:19.737Z,1.00
2017-07-26T08:27:47.232Z,0.70
2017-07-26T08:30:14.753Z,0.80
2017-07-26T08:32:42.249Z,0.82
2017-07-26T08:35:09.770Z,0.62
2017-07-26T08:37:37.273Z,0.80
2017-07-26T08:40:04.793Z,0.60
2017-07-26T08:42:32.317Z,0.70
2017-07-26T08:44:59.834Z,0.73
2017-07-26T08:47:27.373Z,0.90
2017-07-26T08:49:54.873Z,0.70
2017-07-26T08:52:22.397Z,0.50
2017-07-26T08:54:49.904Z,0.70
2017-07-26T08:57:17.425Z,0.60
2017-07-26T08:59:44.933Z,0.85
2017-07-26T09:02:12.465Z,1.10
2017-07-26T09:04:39.976Z,0.70
2017-07-26T09:07:07.482Z,0.80
2017-07-26T09:09:35.000Z,1.10
2017-07-26T09:12:02.510Z,1.02
2017-07-26T09:14:30.045Z,0.93
2017-07-26T09:16:57.540Z,0.90
2017-07-26T09:19:25.067Z,0.88
2017-07-26T09:21:52.574Z,0.70
2017-07-26T09:24:20.103Z,0.70
2017-07-26T09:26:47.601Z,0.80
2017-07-26T09:29:15.140Z,0.80
2017-07-26T09:31:42.642Z,0.88
2017-07-26T09:34:10.171Z,1.00
2017-07-26T09:36:37.709Z,0.90
2017-07-26T09:39:05.217Z,0.90
2017-07-26T09:41:32.741Z,1.00
2017-07-26T09:44:00.241Z,1.00
2017-07-26T09:46:27.764Z,0.90
2017-07-26T09:48:55.269Z,1.30
2017-07-26T09:51:22.789Z,1.08
2017-07-26T09:53:50.288Z,1.50
2017-07-26T09:56:17.953Z,1.92
2017-07-26T09:58:45.452Z,2.00
2017-07-26T10:01:12.977Z,2.65
2017-07-26T10:03:40.482Z,2.75
2017-07-26T10:06:08.006Z,3.00
2017-07-26T10:08:35.506Z,3.62
2017-07-26T10:11:03.021Z,3.62
2017-07-26T10:13:30.516Z,3.80
2017-07-26T10:15:58.056Z,4.12
2017-07-26T10:18:26.568Z,4.20
2017-07-26T10:20:54.305Z,4.03
2017-07-26T10:23:21.825Z,5.12
2017-07-26T10:25:49.335Z,4.50
2017-07-26T10:28:16.854Z,5.07
2017-07-26T10:30:44.369Z,4.85
2017-07-26T10:33:11.885Z,4.78
2017-07-26T10:35:39.417Z,4.75
2017-07-26T10:38:25.725Z,4.45
2017-07-26T10:52:34.193Z,2.42
2017-07-26T11:03:52.322Z,5.10
2017-07-26T11:06:48.157Z,5.60
2017-07-26T11:15:01.715Z,10.48
2017-07-26T11:20:35.041Z,10.00
2017-07-26T11:35:26.722Z,9.65
2017-07-26T11:44:02.578Z,7.78
2017-07-26T11:52:20.254Z,6.80
2017-07-26T11:54:49.178Z,6.53
2017-07-26T11:57:16.700Z,5.80
2017-07-26T11:59:44.425Z,5.43
2017-07-26T12:02:12.051Z,3.78
2017-07-26T12:04:39.659Z,3.40
2017-07-26T12:07:07.187Z,3.60
2017-07-26T12:09:34.688Z,2.90
2017-07-26T12:17:37.807Z,1.70
2017-07-26T12:20:07.418Z,1.05
2017-07-26T12:22:45.055Z,1.25
2017-07-26T12:25:12.959Z,1.02
2017-07-26T12:36:19.808Z,0.73
2017-07-26T12:38:47.328Z,0.70
2017-07-26T12:55:39.590Z,1.52
2017-07-26T12:58:07.597Z,2.12
2017-07-26T13:00:40.235Z,1.60
2017-07-26T13:03:08.081Z,2.00
2017-07-26T13:05:35.725Z,2.28
